KOCQ

Details ICAO KOCQ
Name J Douglas Bake Mem
Region United States
Timezone America/Chicago (UTC-6.0)
Plans Departing 0
Arriving 2
Stats Elevation 604 ft / 184 m (AMSL)
Location 44.874423° -87.909824°
Runways 2
Magnetic Variation 4.229° W
Sunrise 2017-12-18 13:26:09 UTC / 2017-12-18 07:26:09 Local
Sunset 2017-12-18 22:13:17 UTC / 2017-12-18 16:13:17 Local
Advertisement - Login to hide

Runways

ID Width Length Bearing (true) Bearing (mag) Surface Threshold Offset Overrun Length
04 150 ft / 46 m 1,845 ft / 562 m 39.84° 44.07° Grass 0 ft / 0 m 500 ft / 152 m
11 75 ft / 23 m 3,192 ft / 973 m 109.55° 113.78° Asphalt 0 ft / 0 m 0 ft / 0 m
22 150 ft / 46 m 1,845 ft / 562 m 219.84° 224.07° Grass 0 ft / 0 m 760 ft / 232 m
29 75 ft / 23 m 3,192 ft / 973 m 289.56° 293.79° Asphalt 0 ft / 0 m 0 ft / 0 m

Map

Weather


0- 5 10 15 20 25 30 35+ Temperature / ° C

Clouds and Precipitation
Forecast for 2017-12-18 18:00 UTC. Updated 2 hours ago

Ground ~20,000 ft ~40,000 ft Winds

METAR

KOCQ 181435Z AUTO 25005KT 3SM OVC005 M02/M03 A2984 RMK AO1 T10201027

TAF

Not found

Frequencies

Unicom 122.80 MHz CTAF/UNICOM
Approach 119.50 MHz GREEN BAY APP/DEP
Warning: Do not use this data for real-world aviation or navigation. No guarantee of current accuracy is given.